createdAt,value
2023-12-03T00:01:45.452Z,59.48
2023-12-03T00:04:12.569Z,58.96
2023-12-03T00:06:41.964Z,58.77
2023-12-03T00:09:09.898Z,59.49
2023-12-03T00:11:36.760Z,58.93
2023-12-03T00:14:03.667Z,58.84
2023-12-03T00:16:30.403Z,58.73
2023-12-03T00:18:57.740Z,59.42
2023-12-03T00:21:24.607Z,58.92
2023-12-03T00:23:51.546Z,58.97
2023-12-03T00:26:18.381Z,59.40
2023-12-03T00:28:47.049Z,58.99
2023-12-03T00:31:13.879Z,59.28
2023-12-03T00:33:40.767Z,59.45
2023-12-03T00:36:07.960Z,59.34
2023-12-03T00:38:34.812Z,59.54
2023-12-03T00:41:01.538Z,59.41
2023-12-03T00:43:28.339Z,59.66
2023-12-03T00:45:55.391Z,59.54
2023-12-03T00:48:22.285Z,59.76
2023-12-03T00:50:50.030Z,59.67
2023-12-03T00:53:16.825Z,60.13
2023-12-03T00:55:43.570Z,60.20
2023-12-03T00:58:10.370Z,60.04
2023-12-03T01:00:37.126Z,60.11
2023-12-03T01:03:03.954Z,60.48
2023-12-03T01:05:30.754Z,60.35
2023-12-03T01:07:57.691Z,60.22
2023-12-03T01:10:24.532Z,60.08
2023-12-03T01:12:51.677Z,60.07
2023-12-03T01:15:18.508Z,60.35
2023-12-03T01:17:45.278Z,59.86
2023-12-03T01:20:12.362Z,59.88
2023-12-03T01:22:39.152Z,59.71
2023-12-03T01:25:06.315Z,59.97
2023-12-03T01:27:33.203Z,59.60
2023-12-03T01:30:00.203Z,59.69
2023-12-03T01:32:27.082Z,59.47
2023-12-03T01:34:53.901Z,59.61
2023-12-03T01:37:20.731Z,59.42
2023-12-03T01:39:47.731Z,58.91
2023-12-03T01:42:14.621Z,58.61
2023-12-03T01:44:41.425Z,58.71
2023-12-03T01:47:08.816Z,58.82
2023-12-03T01:49:36.380Z,58.61
2023-12-03T01:52:04.013Z,59.06
2023-12-03T01:54:36.473Z,59.10
2023-12-03T01:57:03.867Z,59.10
2023-12-03T01:59:32.603Z,59.26
2023-12-03T02:01:59.536Z,58.77
2023-12-03T02:04:26.409Z,58.85
2023-12-03T02:06:53.269Z,59.12
2023-12-03T02:09:21.343Z,58.82
2023-12-03T02:11:48.654Z,58.86
2023-12-03T02:14:15.673Z,58.55
2023-12-03T02:16:46.627Z,58.98
2023-12-03T02:19:13.503Z,58.56
2023-12-03T02:21:41.266Z,58.38
2023-12-03T02:24:08.165Z,58.12
2023-12-03T02:26:35.229Z,57.97
2023-12-03T02:29:02.052Z,57.54
2023-12-03T02:31:31.613Z,57.49
2023-12-03T02:34:07.892Z,57.43
2023-12-03T02:36:35.375Z,57.40
2023-12-03T02:39:02.865Z,57.59
2023-12-03T02:41:29.937Z,57.51
2023-12-03T02:43:56.887Z,57.66
2023-12-03T02:46:23.943Z,57.52
2023-12-03T02:48:51.209Z,57.27
2023-12-03T02:51:18.397Z,57.58
2023-12-03T02:53:46.416Z,57.64
2023-12-03T02:56:16.593Z,58.03
2023-12-03T02:58:43.389Z,58.37
2023-12-03T03:01:10.561Z,58.39
2023-12-03T03:03:37.476Z,58.31
2023-12-03T03:06:04.422Z,57.80
2023-12-03T03:08:31.236Z,58.18
2023-12-03T03:10:57.931Z,57.78
2023-12-03T03:13:24.702Z,58.45
2023-12-03T03:15:51.470Z,57.55
2023-12-03T03:18:18.318Z,57.41
2023-12-03T03:20:45.188Z,56.89
2023-12-03T03:23:11.915Z,57.08
2023-12-03T03:25:38.669Z,56.87
2023-12-03T03:28:05.467Z,56.84
2023-12-03T03:30:32.330Z,56.21
2023-12-03T03:32:59.199Z,55.89
2023-12-03T03:35:26.021Z,56.29
2023-12-03T03:37:52.750Z,55.90
2023-12-03T03:40:19.509Z,55.68
2023-12-03T03:42:46.283Z,55.58
2023-12-03T03:45:13.166Z,56.32
2023-12-03T03:47:40.089Z,56.02
2023-12-03T03:50:07.314Z,56.00
2023-12-03T03:52:34.062Z,55.42
2023-12-03T03:55:00.859Z,55.76
2023-12-03T03:57:27.712Z,55.12
2023-12-03T03:59:54.489Z,55.72
2023-12-03T04:02:21.366Z,55.98
2023-12-03T04:04:48.467Z,56.21
2023-12-03T04:07:15.491Z,55.71
2023-12-03T04:09:42.410Z,55.51
2023-12-03T04:12:09.208Z,55.25
2023-12-03T04:14:36.509Z,55.86
2023-12-03T04:17:04.646Z,55.41
2023-12-03T04:19:31.559Z,56.04
2023-12-03T04:21:58.335Z,55.84
2023-12-03T04:24:25.158Z,55.65
2023-12-03T04:26:52.056Z,55.68
2023-12-03T04:29:18.952Z,55.82
2023-12-03T04:31:45.716Z,56.01
2023-12-03T04:34:13.589Z,55.62
2023-12-03T04:36:43.137Z,56.10
2023-12-03T04:39:10.394Z,55.65
2023-12-03T04:41:39.005Z,55.30
2023-12-03T04:44:05.951Z,55.99
2023-12-03T04:46:32.831Z,55.89
2023-12-03T04:48:59.765Z,55.71
2023-12-03T04:51:26.861Z,55.84
2023-12-03T04:53:53.823Z,56.34
2023-12-03T04:56:20.563Z,56.01
2023-12-03T04:58:47.331Z,55.98
2023-12-03T05:01:17.188Z,56.24
2023-12-03T05:03:48.618Z,55.20
2023-12-03T05:06:15.714Z,55.11
2023-12-03T05:08:42.590Z,55.65
2023-12-03T05:11:09.691Z,55.51
2023-12-03T05:13:36.516Z,55.73
2023-12-03T05:16:07.668Z,56.21
2023-12-03T05:18:34.737Z,55.42
2023-12-03T05:21:02.791Z,55.29
2023-12-03T05:23:29.626Z,55.76
2023-12-03T05:25:58.178Z,55.30
2023-12-03T05:28:24.959Z,56.00
2023-12-03T05:30:51.819Z,55.78
2023-12-03T05:33:18.793Z,55.21
2023-12-03T05:35:45.718Z,55.37
2023-12-03T05:38:12.539Z,55.70
2023-12-03T05:40:39.439Z,55.75
2023-12-03T05:43:06.235Z,55.65
2023-12-03T05:45:33.082Z,55.32
2023-12-03T05:47:59.969Z,55.54
2023-12-03T05:50:26.740Z,55.22
2023-12-03T05:52:53.476Z,55.12
2023-12-03T05:55:20.763Z,55.43
2023-12-03T05:57:47.579Z,55.21
2023-12-03T06:00:14.967Z,55.40
2023-12-03T06:02:42.037Z,54.88
2023-12-03T06:05:09.012Z,54.98
2023-12-03T06:07:35.902Z,55.04
2023-12-03T06:10:02.869Z,55.60
2023-12-03T06:12:30.213Z,55.40
2023-12-03T06:14:56.994Z,55.32
2023-12-03T06:17:23.802Z,54.67
2023-12-03T06:19:50.657Z,54.19
2023-12-03T06:22:17.487Z,54.09
2023-12-03T06:24:44.348Z,54.45
2023-12-03T06:27:11.177Z,54.44
2023-12-03T06:29:37.936Z,54.02
2023-12-03T06:32:04.827Z,54.15
2023-12-03T06:34:31.644Z,54.55
2023-12-03T06:36:59.638Z,54.60
2023-12-03T06:39:26.564Z,54.89
2023-12-03T06:41:53.514Z,55.23
2023-12-03T06:44:31.000Z,54.76
2023-12-03T06:47:06.275Z,55.12
2023-12-03T06:49:34.472Z,55.15
2023-12-03T06:52:01.367Z,55.67
2023-12-03T06:54:28.372Z,56.15
2023-12-03T06:56:55.234Z,56.27
2023-12-03T06:59:22.034Z,56.49
2023-12-03T07:01:48.848Z,56.25
2023-12-03T07:04:15.554Z,56.03
2023-12-03T07:06:42.450Z,56.30
2023-12-03T07:09:36.263Z,56.26
2023-12-03T07:11:56.097Z,56.45
2023-12-03T07:14:22.824Z,56.70
2023-12-03T07:16:49.647Z,56.91
2023-12-03T07:19:16.418Z,57.11
2023-12-03T07:21:43.373Z,56.86
2023-12-03T07:24:10.137Z,56.76
2023-12-03T07:26:36.992Z,56.65
2023-12-03T07:29:03.963Z,56.70
2023-12-03T07:31:32.248Z,57.04
2023-12-03T07:33:59.042Z,57.04
2023-12-03T07:36:26.794Z,57.09
2023-12-03T07:38:53.600Z,56.98
2023-12-03T07:41:20.380Z,56.82
2023-12-03T07:43:47.168Z,56.54
2023-12-03T07:46:18.120Z,56.33
2023-12-03T07:48:45.847Z,56.02
2023-12-03T07:51:13.345Z,55.90
2023-12-03T07:53:41.267Z,56.30
2023-12-03T07:56:09.569Z,56.46
2023-12-03T07:58:37.268Z,56.46
2023-12-03T08:01:06.562Z,56.49
2023-12-03T08:03:33.913Z,56.58
2023-12-03T08:06:00.935Z,56.22
2023-12-03T08:08:27.862Z,56.31
2023-12-03T08:10:54.765Z,55.77
2023-12-03T08:13:21.627Z,55.94
2023-12-03T08:15:48.420Z,54.98
2023-12-03T08:18:15.289Z,54.64
2023-12-03T08:20:42.116Z,54.44
2023-12-03T08:23:08.963Z,52.80
2023-12-03T08:25:35.783Z,52.31
2023-12-03T08:28:03.795Z,52.66
2023-12-03T08:30:30.628Z,51.87
2023-12-03T08:32:57.649Z,51.94
2023-12-03T08:35:24.434Z,52.45
2023-12-03T08:37:51.236Z,52.96
2023-12-03T08:40:18.111Z,52.47
2023-12-03T08:42:45.768Z,53.00
2023-12-03T08:45:12.882Z,52.50
2023-12-03T08:47:39.770Z,52.69
2023-12-03T08:50:07.392Z,52.82
2023-12-03T08:52:34.567Z,53.08
2023-12-03T08:55:02.098Z,52.63
2023-12-03T08:57:28.902Z,52.40
2023-12-03T08:59:55.769Z,52.39
2023-12-03T09:02:22.805Z,52.58
2023-12-03T09:04:52.318Z,52.51
2023-12-03T09:07:19.383Z,52.05
2023-12-03T09:09:46.802Z,52.19
2023-12-03T09:12:15.274Z,51.51
2023-12-03T09:14:42.042Z,52.27
2023-12-03T09:17:08.894Z,51.63
2023-12-03T09:19:35.774Z,50.94
2023-12-03T09:22:02.801Z,51.28
2023-12-03T09:24:29.637Z,52.02
2023-12-03T09:26:56.465Z,51.31
2023-12-03T09:29:23.258Z,50.60
2023-12-03T09:31:50.026Z,50.81
2023-12-03T09:34:16.931Z,51.02
2023-12-03T09:36:43.783Z,50.59
2023-12-03T09:39:10.918Z,50.03
2023-12-03T09:41:49.340Z,50.99
2023-12-03T09:44:32.702Z,50.96
2023-12-03T09:47:00.611Z,49.88
2023-12-03T09:49:31.224Z,50.39
2023-12-03T09:52:03.802Z,49.35
2023-12-03T09:54:32.866Z,49.94
2023-12-03T09:57:00.716Z,49.35
2023-12-03T09:59:27.970Z,49.99
2023-12-03T10:01:58.655Z,49.02
2023-12-03T10:04:28.835Z,48.80
2023-12-03T10:06:59.661Z,48.65
2023-12-03T10:09:27.762Z,47.97
2023-12-03T10:11:56.576Z,47.23
2023-12-03T10:14:23.833Z,46.89
2023-12-03T10:16:51.361Z,45.38
2023-12-03T10:19:26.537Z,45.47
2023-12-03T10:21:54.722Z,45.03
2023-12-03T10:24:21.655Z,43.94
2023-12-03T10:26:52.947Z,39.95
2023-12-03T10:29:27.202Z,36.72
2023-12-03T10:31:54.618Z,29.75
2023-12-03T10:34:22.540Z,26.20
2023-12-03T10:36:51.129Z,24.41
2023-12-03T10:39:21.423Z,23.92
2023-12-03T10:41:50.667Z,24.15
2023-12-03T10:44:25.578Z,23.99
2023-12-03T10:46:52.386Z,24.06
2023-12-03T10:49:21.693Z,24.70
2023-12-03T10:51:49.000Z,25.91
2023-12-03T10:54:16.063Z,26.70
2023-12-03T10:56:44.560Z,27.18
2023-12-03T10:59:21.947Z,28.09
2023-12-03T11:01:55.026Z,28.98
2023-12-03T11:04:35.571Z,29.45
2023-12-03T11:07:07.506Z,29.49
2023-12-03T11:09:41.757Z,28.75
2023-12-03T11:12:10.658Z,28.18
2023-12-03T11:14:38.090Z,27.90
2023-12-03T11:17:18.938Z,26.36
2023-12-03T11:19:55.374Z,23.16
2023-12-03T11:22:47.902Z,22.27
2023-12-03T11:25:32.681Z,20.56
2023-12-03T11:27:59.613Z,19.76
2023-12-03T11:30:43.269Z,19.12
2023-12-03T11:33:16.554Z,18.11
2023-12-03T11:35:47.664Z,18.34
2023-12-03T11:38:23.433Z,18.16
2023-12-03T11:40:51.001Z,18.24
2023-12-03T11:43:27.578Z,17.75
2023-12-03T11:45:54.744Z,18.52
2023-12-03T11:48:23.952Z,17.41
2023-12-03T11:50:51.222Z,17.18
2023-12-03T11:53:18.501Z,18.19
2023-12-03T11:55:50.339Z,18.39
2023-12-03T11:58:18.190Z,18.11
2023-12-03T12:00:48.134Z,17.96
2023-12-03T12:03:15.276Z,18.03
2023-12-03T12:05:50.405Z,17.94
2023-12-03T12:08:21.164Z,20.18
2023-12-03T12:10:51.287Z,19.56
2023-12-03T12:13:20.365Z,21.29
2023-12-03T12:15:47.794Z,23.32
2023-12-03T12:18:14.725Z,23.92
2023-12-03T12:20:41.670Z,24.93
2023-12-03T12:23:08.481Z,26.99
2023-12-03T12:25:35.376Z,29.37
2023-12-03T12:28:02.459Z,30.18
2023-12-03T12:30:34.812Z,31.43
2023-12-03T12:33:04.034Z,31.71
2023-12-03T12:35:31.305Z,33.49
2023-12-03T12:38:01.416Z,33.97
2023-12-03T12:40:31.181Z,35.10
2023-12-03T12:43:13.893Z,35.74
2023-12-03T12:45:41.603Z,36.93
2023-12-03T12:48:25.470Z,37.14
2023-12-03T12:50:52.645Z,38.33
2023-12-03T12:53:20.109Z,39.69
2023-12-03T12:55:46.953Z,39.31
2023-12-03T12:58:13.814Z,39.63
2023-12-03T13:00:40.599Z,40.67
2023-12-03T13:03:07.451Z,40.07
2023-12-03T13:05:34.417Z,40.39
2023-12-03T13:08:01.752Z,41.32
2023-12-03T13:10:28.580Z,41.86
2023-12-03T13:12:55.549Z,42.30
2023-12-03T13:15:22.742Z,41.64
2023-12-03T13:17:55.595Z,42.01
2023-12-03T13:20:23.663Z,41.40
2023-12-03T13:22:51.160Z,40.82
2023-12-03T13:25:18.940Z,40.85
2023-12-03T13:27:46.033Z,41.25
2023-12-03T13:30:13.029Z,41.48
2023-12-03T13:32:41.822Z,41.71
2023-12-03T13:35:10.169Z,41.89
2023-12-03T13:37:37.593Z,42.14
2023-12-03T13:40:07.755Z,42.85
2023-12-03T13:42:35.684Z,42.89
2023-12-03T13:45:04.108Z,42.73
2023-12-03T13:47:33.417Z,42.94
2023-12-03T13:50:02.142Z,43.53
2023-12-03T13:52:29.340Z,43.29
2023-12-03T13:54:57.804Z,43.24
2023-12-03T13:57:24.765Z,42.64
2023-12-03T13:59:52.045Z,42.86
2023-12-03T14:02:27.995Z,42.34
2023-12-03T14:05:12.511Z,41.39
2023-12-03T14:07:47.775Z,42.17
2023-12-03T14:10:15.134Z,41.99
2023-12-03T14:12:42.306Z,41.78
2023-12-03T14:15:09.688Z,42.03
2023-12-03T14:17:36.587Z,41.91
2023-12-03T14:20:06.322Z,42.38
2023-12-03T14:22:33.624Z,42.55
2023-12-03T14:25:00.739Z,42.71
2023-12-03T14:27:27.736Z,43.27
2023-12-03T14:29:54.632Z,43.14
2023-12-03T14:32:21.640Z,42.90
2023-12-03T14:34:48.469Z,43.37
2023-12-03T14:37:15.321Z,43.83
2023-12-03T14:39:42.175Z,44.36
2023-12-03T14:42:09.096Z,44.65
2023-12-03T14:44:36.055Z,45.02
2023-12-03T14:47:03.459Z,45.05
2023-12-03T14:49:30.374Z,45.59
2023-12-03T14:51:57.267Z,46.21
2023-12-03T14:54:24.202Z,45.57
2023-12-03T14:56:51.464Z,45.76
2023-12-03T14:59:18.260Z,46.53
2023-12-03T15:01:46.419Z,45.95
2023-12-03T15:04:13.330Z,45.95
2023-12-03T15:06:40.165Z,46.59
2023-12-03T15:09:07.068Z,45.80
2023-12-03T15:11:33.868Z,46.29
2023-12-03T15:14:01.103Z,46.47
2023-12-03T15:16:29.853Z,46.41
2023-12-03T15:18:57.182Z,46.33
2023-12-03T15:21:24.237Z,46.49
2023-12-03T15:23:51.316Z,46.47
2023-12-03T15:26:18.237Z,46.38
2023-12-03T15:28:45.125Z,46.79
2023-12-03T15:31:12.464Z,47.70
2023-12-03T15:33:41.348Z,47.21
2023-12-03T15:36:09.036Z,47.10
2023-12-03T15:38:35.835Z,47.10
2023-12-03T15:41:02.620Z,46.77
2023-12-03T15:43:34.406Z,47.09
2023-12-03T15:46:08.754Z,47.83
2023-12-03T15:48:36.037Z,47.34
2023-12-03T15:51:03.330Z,48.20
2023-12-03T15:53:30.422Z,47.96
2023-12-03T15:55:57.677Z,48.36
2023-12-03T15:58:25.603Z,47.85
2023-12-03T16:00:53.030Z,47.84
2023-12-03T16:03:21.248Z,47.95
2023-12-03T16:05:48.499Z,47.07
2023-12-03T16:08:15.346Z,47.96
2023-12-03T16:10:42.204Z,47.87
2023-12-03T16:13:09.094Z,47.40
2023-12-03T16:15:36.017Z,48.16
2023-12-03T16:18:03.069Z,48.54
2023-12-03T16:20:30.081Z,48.45
2023-12-03T16:22:56.979Z,48.70
2023-12-03T16:25:24.792Z,48.44
2023-12-03T16:27:51.608Z,48.73
2023-12-03T16:30:18.544Z,48.75
2023-12-03T16:32:45.492Z,49.63
2023-12-03T16:35:12.879Z,49.86
2023-12-03T16:37:40.520Z,49.81
2023-12-03T16:40:08.914Z,50.49
2023-12-03T16:42:36.649Z,50.70
2023-12-03T16:45:04.080Z,51.17
2023-12-03T16:47:31.199Z,51.68
2023-12-03T16:49:59.758Z,50.45
2023-12-03T16:52:26.696Z,51.62
2023-12-03T16:54:55.135Z,52.13
2023-12-03T16:57:22.595Z,51.28
2023-12-03T16:59:50.025Z,51.35
2023-12-03T17:02:17.156Z,51.92
2023-12-03T17:04:44.787Z,51.67
2023-12-03T17:07:12.272Z,51.94
2023-12-03T17:09:39.392Z,51.26
2023-12-03T17:12:06.435Z,51.52
2023-12-03T17:14:33.374Z,51.83
2023-12-03T17:17:00.177Z,51.36
2023-12-03T17:19:27.119Z,52.07
2023-12-03T17:21:53.973Z,52.51
2023-12-03T17:24:20.849Z,52.71
2023-12-03T17:26:47.752Z,52.38
2023-12-03T17:29:14.622Z,52.17
2023-12-03T17:31:42.518Z,51.89
2023-12-03T17:34:09.610Z,52.66
2023-12-03T17:36:36.649Z,52.77
2023-12-03T17:39:07.894Z,52.55
2023-12-03T17:41:35.897Z,53.08
2023-12-03T17:44:03.012Z,52.73
2023-12-03T17:46:29.999Z,52.84
2023-12-03T17:48:57.063Z,52.75
2023-12-03T17:51:28.532Z,52.71
2023-12-03T17:53:55.471Z,52.21
2023-12-03T17:56:22.252Z,52.97
2023-12-03T17:58:49.055Z,53.23
2023-12-03T18:01:18.599Z,52.52
2023-12-03T18:03:46.870Z,52.67
2023-12-03T18:06:14.099Z,53.53
2023-12-03T18:08:40.994Z,53.97
2023-12-03T18:11:07.892Z,53.80
2023-12-03T18:13:34.679Z,53.38
2023-12-03T18:16:01.748Z,53.18
2023-12-03T18:18:28.864Z,53.39
2023-12-03T18:20:56.044Z,53.95
2023-12-03T18:23:24.311Z,54.32
2023-12-03T18:25:54.298Z,54.21
2023-12-03T18:28:21.136Z,54.39
2023-12-03T18:30:48.858Z,54.58
2023-12-03T18:33:18.739Z,54.38
2023-12-03T18:35:46.726Z,54.55
2023-12-03T18:38:13.641Z,54.34
2023-12-03T18:40:44.196Z,54.93
2023-12-03T18:43:11.287Z,54.58
2023-12-03T18:45:38.305Z,54.33
2023-12-03T18:48:05.570Z,54.66
2023-12-03T18:50:32.461Z,55.56
2023-12-03T18:53:00.148Z,54.86
2023-12-03T18:55:26.990Z,55.26
2023-12-03T18:57:54.038Z,55.40
2023-12-03T19:00:22.011Z,55.09
2023-12-03T19:02:49.766Z,55.17
2023-12-03T19:05:17.385Z,55.42
2023-12-03T19:07:50.273Z,55.42
2023-12-03T19:10:19.669Z,55.37
2023-12-03T19:12:51.054Z,55.48
2023-12-03T19:15:22.560Z,55.54
2023-12-03T19:17:49.415Z,54.64
2023-12-03T19:20:16.297Z,54.84
2023-12-03T19:22:43.171Z,54.49
2023-12-03T19:25:09.920Z,54.16
2023-12-03T19:27:36.861Z,54.09
2023-12-03T19:30:03.911Z,54.81
2023-12-03T19:32:31.129Z,54.41
2023-12-03T19:34:58.167Z,53.74
2023-12-03T19:37:25.117Z,54.12
2023-12-03T19:39:52.330Z,54.15
2023-12-03T19:42:19.268Z,53.77
2023-12-03T19:44:46.068Z,53.89
2023-12-03T19:47:13.027Z,53.65
2023-12-03T19:49:39.801Z,53.35
2023-12-03T19:52:07.003Z,54.20
2023-12-03T19:54:33.839Z,53.89
2023-12-03T19:57:01.906Z,54.38
2023-12-03T19:59:29.375Z,53.62
2023-12-03T20:01:57.500Z,54.16
2023-12-03T20:04:24.521Z,53.95
2023-12-03T20:06:51.860Z,53.70
2023-12-03T20:09:18.845Z,54.06
2023-12-03T20:11:45.632Z,54.25
2023-12-03T20:14:12.473Z,54.40
2023-12-03T20:16:39.330Z,54.32
2023-12-03T20:19:07.464Z,53.98
2023-12-03T20:21:34.439Z,54.18
2023-12-03T20:24:01.264Z,54.09
2023-12-03T20:26:28.034Z,54.38
2023-12-03T20:28:54.829Z,54.32
2023-12-03T20:31:22.609Z,54.87
2023-12-03T20:33:49.650Z,54.75
2023-12-03T20:36:16.572Z,54.54
2023-12-03T20:38:43.410Z,55.40
2023-12-03T20:41:23.287Z,55.40
2023-12-03T20:43:50.845Z,55.01
2023-12-03T20:46:18.636Z,54.90
2023-12-03T20:48:46.124Z,55.27
2023-12-03T20:51:14.170Z,54.71
2023-12-03T20:53:41.732Z,54.96
2023-12-03T20:56:10.242Z,55.28
2023-12-03T20:58:37.062Z,55.41
2023-12-03T21:01:04.244Z,55.19
2023-12-03T21:03:31.328Z,55.46
2023-12-03T21:05:58.969Z,55.94
2023-12-03T21:08:25.824Z,56.02
2023-12-03T21:10:52.581Z,56.20
2023-12-03T21:13:19.783Z,55.71
2023-12-03T21:15:46.746Z,55.56
2023-12-03T21:18:13.676Z,55.79
2023-12-03T21:20:40.520Z,55.79
2023-12-03T21:23:07.415Z,56.05
2023-12-03T21:25:35.036Z,56.55
2023-12-03T21:28:02.088Z,56.99
2023-12-03T21:30:29.371Z,56.57
2023-12-03T21:32:57.964Z,56.72
2023-12-03T21:35:25.020Z,57.16
2023-12-03T21:37:51.931Z,56.71
2023-12-03T21:40:18.695Z,56.76
2023-12-03T21:42:45.681Z,56.57
2023-12-03T21:45:12.611Z,56.73
2023-12-03T21:47:39.587Z,56.59
2023-12-03T21:50:07.305Z,56.56
2023-12-03T21:52:34.161Z,56.13
2023-12-03T21:55:01.302Z,56.30
2023-12-03T21:57:28.245Z,56.04
2023-12-03T21:59:55.144Z,55.76
2023-12-03T22:02:22.121Z,56.33
2023-12-03T22:04:49.552Z,56.34
2023-12-03T22:07:16.498Z,56.31
2023-12-03T22:09:43.361Z,55.88
2023-12-03T22:12:10.146Z,56.14
2023-12-03T22:14:37.016Z,56.55
2023-12-03T22:17:05.592Z,56.31
2023-12-03T22:19:32.734Z,55.99
2023-12-03T22:21:59.899Z,55.99
2023-12-03T22:24:27.264Z,55.98
2023-12-03T22:26:54.300Z,56.63
2023-12-03T22:29:29.769Z,56.29
2023-12-03T22:32:04.386Z,56.76
2023-12-03T22:34:31.350Z,56.73
2023-12-03T22:36:58.224Z,57.03
2023-12-03T22:39:25.572Z,56.81
2023-12-03T22:41:52.423Z,56.27
2023-12-03T22:44:19.178Z,56.28
2023-12-03T22:46:46.032Z,56.93
2023-12-03T22:49:17.607Z,56.19
2023-12-03T22:51:44.578Z,56.48
2023-12-03T22:54:11.500Z,56.72
2023-12-03T22:56:38.252Z,56.82
2023-12-03T22:59:05.119Z,56.71
2023-12-03T23:01:31.899Z,56.75
2023-12-03T23:03:58.810Z,57.03
2023-12-03T23:06:25.805Z,56.88
2023-12-03T23:08:52.656Z,56.84
2023-12-03T23:11:19.589Z,56.86
2023-12-03T23:13:46.566Z,56.77
2023-12-03T23:16:13.580Z,57.00
2023-12-03T23:18:42.219Z,57.14
2023-12-03T23:21:09.158Z,56.87
2023-12-03T23:23:35.964Z,56.91
2023-12-03T23:26:02.814Z,56.68
2023-12-03T23:28:29.802Z,56.87
2023-12-03T23:30:56.885Z,57.37
2023-12-03T23:33:23.945Z,57.07
2023-12-03T23:35:50.807Z,57.26
2023-12-03T23:38:17.606Z,57.15
2023-12-03T23:40:44.389Z,57.41
2023-12-03T23:43:11.240Z,56.94
2023-12-03T23:45:38.022Z,57.12
2023-12-03T23:48:05.015Z,57.44
2023-12-03T23:50:31.840Z,57.45
2023-12-03T23:52:58.915Z,57.41
2023-12-03T23:55:26.176Z,57.42
2023-12-03T23:57:53.034Z,57.38
